Time;durP1;ratioP1;P1;durP2;ratioP2;P2;SDS_P1;SDS_P2;PMS_P1;PMS_P2;Temp;Humidity;BMP_temperature;BMP_pressure;BME280_temperature;BME280_humidity;BME280_pressure;Samples;Min_cycle;Max_cycle;Signal;HPM_P1;HPM_P2
2023/05/31 00:02:07;;;;;;;0.80;0.80;;;;;;;15.71;99.62;100092.97;6208654;23;20008;-92
2023/05/31 00:04:33;;;;;;;0.13;0.10;;;;;;;15.73;99.58;100100.91;6185005;23;20008;-93
2023/05/31 00:07:00;;;;;;;1.40;1.30;;;;;;;15.68;100.00;100098.72;6184619;23;20091;-92
2023/05/31 00:09:25;;;;;;;0.20;0.20;;;;;;;15.56;100.00;100075.31;6160532;23;20008;-92
2023/05/31 00:11:51;;;;;;;0.28;0.28;;;;;;;15.66;100.00;100096.41;6185155;23;20129;-92
2023/05/31 00:14:16;;;;;;;0.57;0.57;;;;;;;15.63;100.00;100093.78;6184536;23;20024;-92
2023/05/31 00:16:42;;;;;;;0.57;0.57;;;;;;;15.61;100.00;100091.44;6160143;23;20410;-92
2023/05/31 00:19:07;;;;;;;0.52;0.52;;;;;;;15.59;100.00;100091.16;6183709;23;20012;-92
2023/05/31 00:21:33;;;;;;;0.75;0.73;;;;;;;15.62;100.00;100086.63;6184891;23;20008;-93
2023/05/31 00:23:58;;;;;;;0.65;0.32;;;;;;;15.59;100.00;100085.56;6184434;23;20079;-92
2023/05/31 00:26:24;;;;;;;0.20;0.20;;;;;;;15.68;100.00;100093.91;6160297;23;20016;-92
2023/05/31 00:28:50;;;;;;;0.50;0.50;;;;;;;15.61;100.00;100087.88;6160391;23;20096;-91
2023/05/31 00:31:15;;;;;;;0.73;0.73;;;;;;;15.53;100.00;100076.22;6160022;23;20114;-92
2023/05/31 00:33:43;;;;;;;0.32;0.32;;;;;;;15.61;100.00;100094.22;6158023;23;20021;-92
2023/05/31 00:36:09;;;;;;;0.30;0.15;;;;;;;15.56;100.00;100086.50;6159737;23;20019;-92
2023/05/31 00:38:36;;;;;;;0.60;0.60;;;;;;;15.54;100.00;100083.38;6185816;23;20020;-92
2023/05/31 00:41:02;;;;;;;0.30;0.30;;;;;;;15.51;100.00;100078.75;6160023;23;20028;-93
2023/05/31 00:43:27;;;;;;;0.70;0.45;;;;;;;15.50;100.00;100082.78;6184271;23;20071;-92
2023/05/31 00:45:53;;;;;;;0.10;0.10;;;;;;;15.48;100.00;100078.88;6185679;23;20019;-92
2023/05/31 00:48:19;;;;;;;1.25;0.85;;;;;;;15.52;100.00;100079.53;6159126;23;20439;-92
2023/05/31 00:50:46;;;;;;;0.52;0.52;;;;;;;15.50;100.00;100082.00;6160579;23;20023;-92
2023/05/31 00:53:12;;;;;;;3.58;0.85;;;;;;;15.50;100.00;100084.78;6159438;23;20017;-91
2023/05/31 00:55:38;;;;;;;1.27;0.80;;;;;;;15.56;100.00;100094.09;6185186;23;20133;-93
2023/05/31 00:58:04;;;;;;;0.52;0.52;;;;;;;15.58;100.00;100097.97;6184152;23;20457;-91
2023/05/31 01:00:30;;;;;;;0.30;0.30;;;;;;;15.52;100.00;100085.09;6184395;23;20020;-92
2023/05/31 01:02:56;;;;;;;0.47;0.47;;;;;;;15.55;100.00;100090.53;6182813;23;20023;-92
2023/05/31 01:05:22;;;;;;;1.55;0.45;;;;;;;15.55;100.00;100084.94;6183847;23;20008;-92
2023/05/31 01:07:47;;;;;;;1.15;1.10;;;;;;;15.50;100.00;100077.19;6158569;23;20190;-92
2023/05/31 01:10:13;;;;;;;0.22;0.22;;;;;;;15.47;100.00;100075.31;6184637;23;20047;-91
2023/05/31 01:12:58;;;;;;;0.10;0.10;;;;;;;15.55;100.00;100082.16;6184256;23;20017;-93
2023/05/31 01:15:26;;;;;;;1.23;1.13;;;;;;;15.48;100.00;100074.06;6185080;23;20023;-92
2023/05/31 01:18:00;;;;;;;0.98;0.63;;;;;;;15.49;100.00;100075.59;6183231;23;20350;-92
2023/05/31 01:20:38;;;;;;;0.20;0.20;;;;;;;15.46;100.00;100079.34;6184910;23;20023;-92
2023/05/31 01:23:22;;;;;;;0.22;0.22;;;;;;;15.34;100.00;100069.13;6184190;23;20122;-92
2023/05/31 01:26:18;;;;;;;0.65;0.65;;;;;;;15.42;100.00;100087.09;6159816;23;20518;-92
2023/05/31 01:28:47;;;;;;;0.65;0.65;;;;;;;15.33;100.00;100078.72;6184268;23;20580;-92
2023/05/31 01:31:18;;;;;;;0.70;0.70;;;;;;;15.41;100.00;100096.72;6159629;23;20023;-91
2023/05/31 01:33:44;;;;;;;1.25;1.00;;;;;;;15.26;100.00;100070.69;6183057;23;20013;-92
2023/05/31 01:36:09;;;;;;;0.10;0.10;;;;;;;15.27;100.00;100086.22;6184403;23;20020;-92
2023/05/31 01:38:35;;;;;;;0.40;0.40;;;;;;;15.16;100.00;100074.75;6159689;23;20040;-93
2023/05/31 01:41:03;;;;;;;0.85;0.85;;;;;;;15.14;100.00;100082.81;6159812;23;20016;-92
2023/05/31 01:43:29;;;;;;;0.80;0.60;;;;;;;15.16;100.00;100077.53;6184836;23;20324;-92
2023/05/31 01:45:55;;;;;;;0.10;0.10;;;;;;;15.13;100.00;100084.81;6158781;23;20161;-91
2023/05/31 01:48:23;;;;;;;0.50;0.50;;;;;;;15.15;100.00;100089.94;6182516;23;20022;-93
2023/05/31 01:50:49;;;;;;;0.40;0.40;;;;;;;15.06;100.00;100064.81;6158133;23;20028;-91
2023/05/31 01:53:15;;;;;;;0.75;0.75;;;;;;;15.06;100.00;100075.97;6159162;23;20419;-91
2023/05/31 01:55:43;;;;;;;0.10;0.10;;;;;;;15.03;100.00;100093.69;6158404;23;20492;-91
2023/05/31 01:58:10;;;;;;;0.98;0.68;;;;;;;14.98;100.00;100081.09;6183365;23;20009;-91
2023/05/31 02:00:35;;;;;;;0.22;0.17;;;;;;;14.91;100.00;100079.41;6158942;23;20358;-92
2023/05/31 02:03:01;;;;;;;0.45;0.45;;;;;;;14.94;100.00;100098.03;6181898;23;20017;-92
2023/05/31 02:05:26;;;;;;;0.95;0.70;;;;;;;14.96;100.00;100105.94;6183440;23;20406;-91
2023/05/31 02:07:54;;;;;;;0.77;0.68;;;;;;;14.94;100.00;100098.03;6157318;23;20099;-91
2023/05/31 02:10:19;;;;;;;0.28;0.28;;;;;;;14.94;100.00;100103.59;6158964;23;20013;-92
2023/05/31 02:12:45;;;;;;;0.38;0.38;;;;;;;15.01;100.00;100105.31;6159018;23;20354;-92
2023/05/31 02:15:12;;;;;;;1.55;0.88;;;;;;;14.98;100.00;100109.03;6159319;23;20013;-92
2023/05/31 02:17:42;;;;;;;0.88;0.80;;;;;;;14.98;100.00;100106.25;6157906;23;20017;-92
2023/05/31 02:20:10;;;;;;;0.03;0.03;;;;;;;14.97;100.00;100112.28;6158305;23;20484;-92
2023/05/31 02:22:35;;;;;;;4.00;1.13;;;;;;;14.97;100.00;100120.66;6182230;23;20074;-93
2023/05/31 02:25:02;;;;;;;0.55;0.45;;;;;;;14.88;100.00;100111.03;6183872;23;20013;-92
2023/05/31 02:27:29;;;;;;;0.45;0.45;;;;;;;14.90;100.00;100111.38;6183271;23;20339;-91
2023/05/31 02:29:54;;;;;;;0.32;0.32;;;;;;;14.83;100.00;100097.72;6184402;23;20320;-93
2023/05/31 02:32:20;;;;;;;0.20;0.20;;;;;;;14.92;100.00;100120.03;6157687;23;20011;-92
2023/05/31 02:34:47;;;;;;;0.35;0.25;;;;;;;14.88;100.00;100111.03;6184337;23;20508;-92
2023/05/31 02:37:13;;;;;;;0.57;0.57;;;;;;;14.86;100.00;100107.94;6158294;23;20440;-93
2023/05/31 02:39:38;;;;;;;1.08;0.47;;;;;;;14.84;100.00;100110.41;6159981;23;20017;-91
2023/05/31 02:42:04;;;;;;;0.77;0.77;;;;;;;14.77;100.00;100104.38;6158784;23;20020;-92
2023/05/31 02:44:31;;;;;;;0.35;0.30;;;;;;;14.75;100.00;100102.06;6159592;23;20104;-92
2023/05/31 02:46:57;;;;;;;0.95;0.90;;;;;;;14.80;100.00;100118.16;6158917;23;20042;-91
2023/05/31 02:49:23;;;;;;;0.45;0.40;;;;;;;14.80;100.00;100120.97;6158474;23;20012;-92
2023/05/31 02:51:48;;;;;;;0.52;0.52;;;;;;;14.72;100.00;100107.78;6183644;23;20459;-92
2023/05/31 02:54:23;;;;;;;0.20;0.20;;;;;;;14.70;100.00;100113.06;6218986;23;20048;-92
2023/05/31 02:56:50;;;;;;;2.50;0.93;;;;;;;14.75;100.00;100116.03;6158893;23;20360;-91
2023/05/31 02:59:18;;;;;;;0.63;0.60;;;;;;;14.70;100.00;100113.84;6159584;23;20016;-91
2023/05/31 03:02:10;;;;;;;0.30;0.30;;;;;;;14.75;100.00;100123.63;6203818;23;20027;-92
2023/05/31 03:04:38;;;;;;;0.43;0.22;;;;;;;14.77;100.00;100113.53;6185686;23;20028;-91
2023/05/31 03:07:04;;;;;;;0.30;0.30;;;;;;;14.76;100.00;100114.75;6184030;23;20154;-92
2023/05/31 03:09:30;;;;;;;0.45;0.45;;;;;;;14.67;100.00;100114.75;6161818;23;20190;-91
2023/05/31 03:11:56;;;;;;;0.30;0.20;;;;;;;14.68;100.00;100119.09;6185602;23;20024;-92
2023/05/31 03:14:23;;;;;;;1.20;1.00;;;;;;;14.65;100.00;100117.22;6185150;23;20017;-91
2023/05/31 03:16:52;;;;;;;0.52;0.52;;;;;;;14.60;100.00;100111.50;6185818;23;20020;-91
2023/05/31 03:19:18;;;;;;;1.85;0.55;;;;;;;14.63;100.00;100118.94;6184419;23;19996;-91
2023/05/31 03:21:47;;;;;;;0.95;0.40;;;;;;;14.62;100.00;100126.53;6186199;23;20443;-91
2023/05/31 03:24:13;;;;;;;0.45;0.45;;;;;;;14.64;100.00;100124.03;6160714;23;20071;-91
2023/05/31 03:26:38;;;;;;;0.17;0.17;;;;;;;14.66;100.00;100132.75;6160935;23;20095;-92
2023/05/31 03:29:04;;;;;;;0.47;0.32;;;;;;;14.71;100.00;100140.53;6160223;23;20004;-92
2023/05/31 03:31:33;;;;;;;1.42;0.25;;;;;;;14.73;100.00;100149.19;6186240;23;20035;-91
2023/05/31 03:33:59;;;;;;;7.20;1.45;;;;;;;14.69;100.00;100137.41;6183989;23;20447;-91
2023/05/31 03:36:25;;;;;;;0.35;0.35;;;;;;;14.78;100.00;100156.97;6161562;23;20074;-91
2023/05/31 03:38:51;;;;;;;0.57;0.57;;;;;;;14.78;100.00;100154.19;6160744;23;20370;-92
2023/05/31 03:41:17;;;;;;;0.13;0.13;;;;;;;14.77;100.00;100161.00;6185536;23;20012;-91
2023/05/31 03:43:43;;;;;;;1.20;1.08;;;;;;;14.75;100.00;100152.31;6184687;23;20043;-91
2023/05/31 03:46:08;;;;;;;0.98;0.32;;;;;;;14.70;100.00;100158.50;6160315;23;20023;-92
2023/05/31 03:48:35;;;;;;;1.05;0.63;;;;;;;14.78;100.00;100156.97;6184560;23;20019;-91
2023/05/31 03:51:01;;;;;;;0.32;0.32;;;;;;;14.72;100.00;100153.22;6160117;23;20016;-92
2023/05/31 03:53:27;;;;;;;0.08;0.08;;;;;;;14.70;100.00;100155.72;6185439;23;20135;-92
2023/05/31 03:55:53;;;;;;;0.30;0.30;;;;;;;14.77;100.00;100163.78;6160244;23;20226;-92
2023/05/31 03:58:20;;;;;;;0.57;0.57;;;;;;;14.78;100.00;100165.34;6160397;23;20103;-91
2023/05/31 04:00:46;;;;;;;0.20;0.20;;;;;;;14.81;100.00;100172.78;6160309;23;20348;-91
2023/05/31 04:03:12;;;;;;;0.30;0.30;;;;;;;14.82;100.00;100179.16;6159164;23;20098;-91
2023/05/31 04:05:39;;;;;;;2.50;1.05;;;;;;;14.83;100.00;100175.91;6160677;23;20005;-92
2023/05/31 04:08:06;;;;;;;0.00;0.00;;;;;;;14.78;100.00;100172.94;6160393;23;20098;-91
2023/05/31 04:10:33;;;;;;;0.43;0.43;;;;;;;14.78;100.00;100176.50;6184218;23;20032;-91
2023/05/31 04:12:58;;;;;;;0.10;0.10;;;;;;;14.79;100.00;100183.66;6182935;23;20017;-91
2023/05/31 04:15:24;;;;;;;1.40;0.95;;;;;;;14.71;100.00;100174.03;6184841;23;20019;-91
2023/05/31 04:17:52;;;;;;;0.32;0.32;;;;;;;14.75;100.00;100179.47;6159312;23;20055;-91
2023/05/31 04:35:28;;;;;;;1.75;1.08;;;;;;;14.64;100.00;100167.97;6247155;23;20592;-91
2023/05/31 04:37:58;;;;;;;2.20;1.85;;;;;;;14.69;100.00;100176.50;6196538;23;20095;-91
2023/05/31 04:40:25;;;;;;;0.47;0.20;;;;;;;14.71;100.00;100185.19;6197219;23;20012;-91
2023/05/31 04:42:51;;;;;;;0.60;0.60;;;;;;;14.76;100.00;100197.78;6220087;23;20038;-91
2023/05/31 04:45:25;;;;;;;0.38;0.38;;;;;;;14.82;100.00;100184.75;6222468;23;20046;-92
2023/05/31 04:47:51;;;;;;;0.47;0.47;;;;;;;14.77;100.00;100196.50;6189811;23;20074;-92
2023/05/31 04:50:18;;;;;;;0.65;0.65;;;;;;;14.81;100.00;100197.94;6193469;23;20016;-91
2023/05/31 04:52:45;;;;;;;2.55;0.57;;;;;;;14.74;100.00;100201.00;6193340;23;20022;-91
2023/05/31 04:55:11;;;;;;;5.60;1.45;;;;;;;14.68;100.00;100207.69;6193573;22;20020;-92
2023/05/31 04:57:37;;;;;;;0.70;0.50;;;;;;;14.69;100.00;100215.56;6192923;23;20434;-91
2023/05/31 05:00:09;;;;;;;0.60;0.60;;;;;;;14.70;100.00;100214.34;6195928;23;20026;-91
2023/05/31 05:02:37;;;;;;;0.68;0.68;;;;;;;14.63;100.00;100206.25;6189367;23;20342;-91
2023/05/31 05:05:06;;;;;;;0.60;0.47;;;;;;;14.72;100.00;100214.66;6213782;23;20012;-91
2023/05/31 05:07:32;;;;;;;0.40;0.40;;;;;;;14.75;100.00;100213.75;6214152;23;20106;-91
2023/05/31 05:09:58;;;;;;;0.85;0.85;;;;;;;14.81;100.00;100225.84;6163349;23;20501;-92
2023/05/31 05:12:24;;;;;;;0.15;0.15;;;;;;;14.80;100.00;100221.50;6212440;23;20020;-92
2023/05/31 05:14:50;;;;;;;0.20;0.20;;;;;;;14.81;100.00;100225.84;6214954;23;20012;-92
2023/05/31 05:17:16;;;;;;;1.45;1.05;;;;;;;14.84;100.00;100213.00;6212567;23;20020;-92
2023/05/31 05:19:42;;;;;;;0.38;0.32;;;;;;;14.82;100.00;100232.22;6216736;23;20023;-93
2023/05/31 05:22:10;;;;;;;0.38;0.38;;;;;;;14.82;100.00;100224.63;6217017;23;20089;-92
2023/05/31 05:24:36;;;;;;;0.22;0.22;;;;;;;14.90;100.00;100225.09;6214476;23;20024;-91
2023/05/31 05:27:02;;;;;;;0.50;0.45;;;;;;;14.97;100.00;100224.00;6165415;23;20005;-92
2023/05/31 05:29:28;;;;;;;0.30;0.30;;;;;;;15.07;100.00;100231.19;6217200;23;20442;-92
2023/05/31 05:31:56;;;;;;;0.57;0.57;;;;;;;15.20;100.00;100232.63;6215339;23;20036;-91
2023/05/31 05:34:22;;;;;;;6.18;1.17;;;;;;;15.20;100.00;100237.44;6182790;23;20020;-92
2023/05/31 05:36:47;;;;;;;1.13;1.02;;;;;;;15.25;100.00;100239.59;6157974;23;20009;-92
2023/05/31 05:39:13;;;;;;;0.40;0.40;;;;;;;15.31;100.00;100237.75;6184154;23;20417;-90
2023/05/31 05:41:39;;;;;;;0.25;0.25;;;;;;;15.34;100.00;100239.59;6209325;23;20020;-90
2023/05/31 05:44:04;;;;;;;0.20;0.20;;;;;;;15.39;100.00;100244.56;6209379;23;20024;-92
2023/05/31 05:46:31;;;;;;;0.90;0.77;;;;;;;15.38;100.00;100238.22;6210369;23;20032;-92
2023/05/31 05:48:57;;;;;;;0.15;0.15;;;;;;;15.49;100.00;100240.53;6207587;23;20450;-92
2023/05/31 05:51:23;;;;;;;0.13;0.13;;;;;;;15.53;100.00;100249.56;6209187;23;20431;-91
2023/05/31 05:53:49;;;;;;;0.20;0.20;;;;;;;15.52;100.00;100247.25;6208333;23;20027;-91
2023/05/31 05:56:18;;;;;;;0.65;0.65;;;;;;;15.59;100.00;100253.31;6209778;23;20037;-92
2023/05/31 05:58:56;;;;;;;0.50;0.50;;;;;;;15.61;100.00;100244.47;6209934;23;20132;-91
2023/05/31 06:01:41;;;;;;;2.53;0.77;;;;;;;15.70;100.00;100253.63;6228879;23;20027;-91
2023/05/31 06:04:08;;;;;;;0.50;0.50;;;;;;;15.69;100.00;100254.84;6208583;23;20012;-92
2023/05/31 06:06:35;;;;;;;0.50;0.50;;;;;;;15.72;100.00;100255.94;6210303;23;20079;-91
2023/05/31 06:09:01;;;;;;;0.70;0.70;;;;;;;15.78;100.00;100263.25;6209599;23;20020;-91
2023/05/31 06:11:26;;;;;;;2.72;0.82;;;;;;;15.83;100.00;100273.03;6210165;23;20096;-92
2023/05/31 06:13:56;;;;;;;0.73;0.73;;;;;;;15.72;100.00;100261.53;6209669;23;20017;-92
2023/05/31 06:16:23;;;;;;;0.47;0.45;;;;;;;15.78;100.00;100266.03;6210215;23;20031;-90
2023/05/31 06:18:49;;;;;;;1.20;1.00;;;;;;;15.75;100.00;100266.19;6208839;23;20005;-91
2023/05/31 06:21:16;;;;;;;0.43;0.43;;;;;;;15.89;100.00;100270.41;6209525;23;20024;-91
2023/05/31 06:23:42;;;;;;;0.52;0.52;;;;;;;15.87;100.00;100268.06;6184866;23;20048;-91
2023/05/31 06:26:08;;;;;;;0.25;0.25;;;;;;;15.89;100.00;100271.16;6210200;23;20092;-91
2023/05/31 06:28:34;;;;;;;1.27;1.10;;;;;;;15.91;100.00;100273.50;6209814;23;20014;-91
2023/05/31 06:31:02;;;;;;;1.02;0.93;;;;;;;15.95;100.00;100276.91;6184653;23;20383;-90
2023/05/31 06:33:28;;;;;;;0.30;0.30;;;;;;;15.93;100.00;100276.59;6208221;23;20399;-92
2023/05/31 06:35:53;;;;;;;0.10;0.10;;;;;;;16.00;100.00;100279.06;6209691;23;20024;-90
2023/05/31 06:38:21;;;;;;;0.28;0.22;;;;;;;16.03;100.00;100280.94;6209293;23;20020;-92
2023/05/31 06:40:48;;;;;;;0.45;0.45;;;;;;;15.97;100.00;100282.81;6209864;23;20063;-91
2023/05/31 06:43:15;;;;;;;0.47;0.45;;;;;;;16.03;100.00;100281.72;6184480;23;20104;-91
2023/05/31 06:46:15;;;;;;;0.28;0.28;;;;;;;16.08;100.00;100288.72;6210223;23;20142;-92
2023/05/31 06:49:12;;;;;;;1.02;0.95;;;;;;;16.11;100.00;100287.75;6226716;23;20443;-91
2023/05/31 06:51:50;;;;;;;2.38;1.55;;;;;;;16.07;100.00;100271.13;6233255;23;20441;-91
2023/05/31 06:54:36;;;;;;;0.57;0.57;;;;;;;16.09;100.00;100284.66;6185298;23;20021;-91
2023/05/31 06:57:03;;;;;;;0.32;0.32;;;;;;;16.09;100.00;100282.66;6184272;23;20015;-91
2023/05/31 06:59:29;;;;;;;1.05;0.70;;;;;;;16.16;100.00;100284.34;6234940;23;20013;-91
2023/05/31 07:01:54;;;;;;;0.43;0.43;;;;;;;16.16;100.00;100295.53;6208945;23;20051;-92
2023/05/31 07:04:20;;;;;;;0.38;0.25;;;;;;;16.02;100.00;100287.75;6208902;23;20008;-92
2023/05/31 07:06:47;;;;;;;0.60;0.60;;;;;;;15.98;100.00;100278.75;6209461;23;20058;-91
2023/05/31 07:09:13;;;;;;;0.93;0.93;;;;;;;15.96;100.00;100292.44;6209035;23;20083;-91
2023/05/31 07:11:50;;;;;;;0.73;0.73;;;;;;;16.01;100.00;100284.22;6209399;23;20012;-91
2023/05/31 07:14:15;;;;;;;0.75;0.73;;;;;;;16.00;100.00;100288.25;6183979;23;20406;-92
2023/05/31 07:16:41;;;;;;;0.45;0.45;;;;;;;15.98;100.00;100287.16;6208747;23;20399;-91
2023/05/31 07:19:07;;;;;;;1.75;1.35;;;;;;;15.90;100.00;100283.13;6234267;23;20031;-91
2023/05/31 07:21:32;;;;;;;0.40;0.40;;;;;;;15.97;100.00;100283.59;6213909;23;20071;-91
2023/05/31 07:23:58;;;;;;;0.17;0.17;;;;;;;15.92;100.00;100275.81;6184658;23;20008;-91
2023/05/31 07:26:23;;;;;;;0.20;0.20;;;;;;;15.96;100.00;100278.47;6184200;23;19997;-92
2023/05/31 07:28:52;;;;;;;1.35;0.98;;;;;;;15.92;100.00;100281.41;6208977;23;20013;-91
2023/05/31 07:31:18;;;;;;;0.75;0.75;;;;;;;15.91;100.00;100284.69;6209043;23;20004;-91
2023/05/31 07:33:44;;;;;;;1.00;0.98;;;;;;;15.98;100.00;100290.72;6207816;23;20071;-92
2023/05/31 07:36:10;;;;;;;0.30;0.30;;;;;;;15.98;100.00;100284.34;6208909;23;20439;-92
2023/05/31 07:38:35;;;;;;;1.08;1.08;;;;;;;16.00;100.00;100279.84;6209298;23;20016;-92
2023/05/31 07:41:01;;;;;;;1.38;1.27;;;;;;;16.00;100.00;100270.69;6209162;23;20473;-92
2023/05/31 07:43:29;;;;;;;0.73;0.57;;;;;;;16.13;100.00;100269.28;6235063;23;20427;-92
2023/05/31 07:45:56;;;;;;;0.73;0.73;;;;;;;16.23;100.00;100284.78;6210534;23;20016;-91
2023/05/31 07:48:21;;;;;;;0.43;0.43;;;;;;;16.31;100.00;100274.03;6208429;23;20005;-91
2023/05/31 07:50:47;;;;;;;0.50;0.50;;;;;;;16.44;100.00;100276.66;6209687;23;20511;-91
2023/05/31 07:53:13;;;;;;;0.40;0.40;;;;;;;16.54;100.00;100259.31;6233784;23;20355;-91
2023/05/31 07:55:39;;;;;;;0.65;0.55;;;;;;;16.59;100.00;100261.53;6184049;23;20039;-91
2023/05/31 07:58:05;;;;;;;0.90;0.85;;;;;;;16.86;100.00;100274.66;6233537;23;20403;-91
2023/05/31 08:00:31;;;;;;;0.25;0.25;;;;;;;17.04;100.00;100268.16;6184129;23;20029;-92
2023/05/31 08:02:56;;;;;;;0.73;0.73;;;;;;;17.26;100.00;100257.44;6208550;23;20403;-91
2023/05/31 08:05:22;;;;;;;0.55;0.55;;;;;;;17.46;100.00;100271.63;6158846;23;20330;-93
2023/05/31 08:07:48;;;;;;;0.73;0.68;;;;;;;17.45;100.00;100264.47;6208980;23;20340;-92
2023/05/31 08:10:15;;;;;;;0.40;0.40;;;;;;;17.61;100.00;100264.06;6208691;23;20092;-91
2023/05/31 08:12:41;;;;;;;0.28;0.28;;;;;;;17.93;100.00;100270.00;6209367;23;20023;-91
2023/05/31 08:15:07;;;;;;;0.52;0.47;;;;;;;18.24;100.00;100261.16;6183755;23;20351;-91
2023/05/31 08:17:32;;;;;;;0.52;0.52;;;;;;;18.55;99.26;100258.63;6233574;23;20087;-92
2023/05/31 08:19:58;;;;;;;12.63;1.40;;;;;;;18.60;97.11;100269.94;6209812;23;20110;-92
2023/05/31 08:22:24;;;;;;;0.35;0.35;;;;;;;18.78;98.13;100257.69;6208983;23;20008;-91
2023/05/31 08:24:49;;;;;;;0.22;0.22;;;;;;;19.03;97.82;100271.09;6208851;23;20009;-91
2023/05/31 08:27:17;;;;;;;1.55;1.13;;;;;;;19.14;93.68;100273.28;6208727;23;20020;-90
2023/05/31 08:29:43;;;;;;;0.40;0.40;;;;;;;19.33;92.32;100277.38;6209205;23;20017;-90
2023/05/31 08:32:09;;;;;;;0.50;0.50;;;;;;;19.38;89.51;100268.25;6207690;23;20020;-91
2023/05/31 08:34:34;;;;;;;0.85;0.85;;;;;;;19.46;89.36;100277.84;6233647;23;20086;-91
2023/05/31 08:37:00;;;;;;;2.08;1.20;;;;;;;19.92;86.78;100277.09;6183282;23;20020;-90
2023/05/31 08:39:27;;;;;;;0.55;0.55;;;;;;;20.14;84.22;100273.75;6209022;23;20039;-91
2023/05/31 08:42:04;;;;;;;1.05;1.00;;;;;;;20.26;83.94;100273.34;6209396;23;20347;-91
2023/05/31 08:44:30;;;;;;;0.50;0.50;;;;;;;20.33;85.30;100278.56;6159674;23;20035;-90
2023/05/31 08:46:58;;;;;;;0.68;0.50;;;;;;;20.08;84.12;100276.50;6208888;23;20207;-91
2023/05/31 08:49:24;;;;;;;0.60;0.60;;;;;;;20.36;84.00;100271.16;6208646;23;20027;-91
2023/05/31 08:51:50;;;;;;;0.55;0.55;;;;;;;20.74;80.72;100269.94;6184346;23;20087;-91
2023/05/31 08:54:16;;;;;;;0.65;0.65;;;;;;;21.16;76.48;100284.06;6208402;23;20307;-92
2023/05/31 08:56:43;;;;;;;1.42;0.77;;;;;;;21.52;75.80;100279.63;6208776;23;20012;-91
2023/05/31 08:59:11;;;;;;;0.52;0.52;;;;;;;21.54;71.38;100277.06;6208023;23;20419;-91
2023/05/31 09:01:37;;;;;;;1.15;1.15;;;;;;;21.56;72.73;100285.03;6208727;23;20021;-91
2023/05/31 09:04:06;;;;;;;0.77;0.60;;;;;;;21.65;72.15;100265.81;6181941;23;20005;-91
2023/05/31 09:06:32;;;;;;;0.57;0.57;;;;;;;21.99;69.40;100269.56;6234554;23;20116;-92
2023/05/31 09:08:59;;;;;;;1.65;0.73;;;;;;;22.38;70.95;100268.81;6184611;23;20009;-92
2023/05/31 09:11:25;;;;;;;0.38;0.38;;;;;;;22.74;65.96;100267.81;6210764;23;20088;-91
2023/05/31 09:13:51;;;;;;;0.38;0.38;;;;;;;22.60;63.49;100274.50;6210130;23;20004;-91
2023/05/31 09:16:17;;;;;;;0.25;0.25;;;;;;;22.30;65.17;100277.81;6236083;23;20008;-91
2023/05/31 09:18:42;;;;;;;0.30;0.30;;;;;;;22.02;66.50;100274.16;6209535;23;20070;-91
2023/05/31 09:21:10;;;;;;;1.13;0.90;;;;;;;21.85;69.35;100276.91;6209904;23;20021;-91
2023/05/31 09:23:36;;;;;;;0.90;0.85;;;;;;;21.77;69.38;100269.44;6210320;23;20067;-92
2023/05/31 09:26:05;;;;;;;0.40;0.40;;;;;;;21.88;70.20;100272.28;6235846;23;20005;-91
2023/05/31 09:28:31;;;;;;;0.60;0.60;;;;;;;21.66;67.62;100275.06;6235753;23;20020;-91
2023/05/31 09:31:07;;;;;;;1.27;1.17;;;;;;;21.72;71.08;100270.19;6210427;23;20021;-92
2023/05/31 09:33:43;;;;;;;0.63;0.60;;;;;;;22.41;70.78;100273.44;6209070;23;20465;-91
2023/05/31 09:36:09;;;;;;;1.27;1.17;;;;;;;22.99;66.29;100265.97;6184668;23;20031;-91
2023/05/31 09:38:35;;;;;;;0.68;0.68;;;;;;;23.24;62.69;100271.31;6210423;23;20020;-91
2023/05/31 09:41:20;;;;;;;1.95;1.02;;;;;;;23.93;61.67;100254.31;6184991;23;20015;-92
2023/05/31 09:43:48;;;;;;;1.85;1.15;;;;;;;24.04;55.62;100262.72;6210036;23;20073;-91
2023/05/31 09:46:16;;;;;;;0.80;0.80;;;;;;;23.86;54.57;100262.59;6210156;23;20071;-92
2023/05/31 09:48:42;;;;;;;1.25;0.60;;;;;;;24.27;54.67;100273.91;6234743;23;20001;-91
2023/05/31 09:51:08;;;;;;;1.65;0.73;;;;;;;24.74;54.02;100255.50;6184594;23;20020;-91
2023/05/31 09:53:44;;;;;;;0.45;0.45;;;;;;;24.99;51.99;100262.00;6185062;23;20127;-91
2023/05/31 09:56:16;;;;;;;0.43;0.43;;;;;;;24.93;51.00;100247.09;6184869;23;20023;-91
2023/05/31 09:58:41;;;;;;;1.02;0.93;;;;;;;25.18;50.67;100259.19;6210132;23;20020;-91
2023/05/31 10:01:09;;;;;;;1.77;1.63;;;;;;;25.28;51.46;100263.97;6184508;23;20011;-91
2023/05/31 10:03:35;;;;;;;1.75;0.68;;;;;;;25.18;50.29;100259.19;6208659;23;20011;-91
2023/05/31 10:06:01;;;;;;;0.63;0.63;;;;;;;25.10;51.93;100263.94;6209749;23;20008;-92
2023/05/31 10:08:26;;;;;;;0.40;0.40;;;;;;;24.82;53.31;100267.81;6210081;23;20062;-92
2023/05/31 10:10:54;;;;;;;1.33;1.20;;;;;;;24.60;50.90;100262.31;6210147;23;20039;-91
2023/05/31 10:13:20;;;;;;;0.60;0.60;;;;;;;24.50;51.99;100253.41;6235628;23;20016;-91
2023/05/31 10:15:49;;;;;;;1.27;1.17;;;;;;;24.49;52.51;100262.44;6209618;23;20195;-90
2023/05/31 10:18:16;;;;;;;1.00;1.00;;;;;;;24.20;52.34;100252.59;6208691;23;20019;-91
2023/05/31 10:20:47;;;;;;;0.70;0.70;;;;;;;24.13;53.02;100256.75;6209360;23;20446;-91
2023/05/31 10:23:20;;;;;;;1.02;0.95;;;;;;;24.28;53.28;100245.06;6234924;23;20023;-91
2023/05/31 10:26:15;;;;;;;0.63;0.63;;;;;;;24.32;55.74;100254.06;6209835;23;20347;-91
2023/05/31 10:28:46;;;;;;;1.38;0.65;;;;;;;24.24;54.91;100260.81;6209729;23;20094;-92
2023/05/31 10:31:14;;;;;;;0.80;0.80;;;;;;;24.39;55.58;100247.81;6234491;23;20070;-91
2023/05/31 10:33:44;;;;;;;1.30;1.15;;;;;;;24.48;54.53;100247.47;6183520;23;20048;-92
2023/05/31 10:36:10;;;;;;;1.27;1.17;;;;;;;24.53;51.85;100240.22;6209057;23;20040;-91
2023/05/31 10:38:42;;;;;;;0.43;0.43;;;;;;;24.74;53.97;100251.91;6209654;23;20403;-91
2023/05/31 10:41:21;;;;;;;0.68;0.43;;;;;;;24.58;51.39;100243.00;6215500;23;20627;-91
2023/05/31 10:43:54;;;;;;;2.05;1.05;;;;;;;24.58;48.23;100248.69;6209707;23;20021;-91
2023/05/31 10:46:23;;;;;;;0.93;0.93;;;;;;;24.62;50.89;100237.06;6209283;23;20021;-92
2023/05/31 10:48:53;;;;;;;1.98;1.73;;;;;;;24.89;52.42;100244.53;6208626;23;20015;-92
2023/05/31 10:51:19;;;;;;;0.88;0.82;;;;;;;25.07;51.92;100238.16;6184509;23;20024;-91
2023/05/31 10:53:46;;;;;;;2.70;1.00;;;;;;;25.21;52.78;100247.53;6209616;23;20062;-92
2023/05/31 10:56:13;;;;;;;0.57;0.57;;;;;;;25.24;52.57;100242.84;6209493;23;20558;-92
2023/05/31 10:58:42;;;;;;;0.95;0.90;;;;;;;25.04;51.31;100244.13;6234765;23;20088;-91
2023/05/31 11:01:13;;;;;;;1.27;1.17;;;;;;;25.22;51.36;100240.56;6209133;23;20024;-92
2023/05/31 11:03:52;;;;;;;0.55;0.38;;;;;;;25.13;51.82;100234.47;6208326;23;20012;-92
2023/05/31 11:06:26;;;;;;;0.82;0.73;;;;;;;25.12;53.52;100235.78;6211409;23;20350;-91
2023/05/31 11:09:12;;;;;;;0.93;0.90;;;;;;;25.08;52.12;100224.72;6209530;23;20108;-91
2023/05/31 11:11:41;;;;;;;1.00;0.47;;;;;;;25.23;51.82;100230.00;6235153;23;20055;-92
2023/05/31 11:14:31;;;;;;;1.05;0.95;;;;;;;25.24;50.91;100228.66;6208827;23;20020;-91
2023/05/31 11:17:04;;;;;;;0.82;0.82;;;;;;;25.14;51.15;100227.50;6208790;23;20429;-92
2023/05/31 11:19:31;;;;;;;0.68;0.68;;;;;;;24.74;51.58;100207.28;6234331;23;20013;-93
2023/05/31 11:21:59;;;;;;;1.38;1.27;;;;;;;25.10;53.07;100212.84;6184410;23;20087;-91
2023/05/31 11:24:35;;;;;;;0.63;0.63;;;;;;;25.55;49.78;100211.03;6234965;23;20343;-92
2023/05/31 11:27:01;;;;;;;0.70;0.70;;;;;;;25.93;50.33;100194.69;6209345;23;20019;-92
2023/05/31 11:29:48;;;;;;;1.40;1.30;;;;;;;26.56;47.63;100196.78;6235249;23;20092;-91
2023/05/31 11:32:15;;;;;;;1.63;1.27;;;;;;;26.98;48.00;100185.66;6232675;23;20800;-91
2023/05/31 11:34:56;;;;;;;0.30;0.30;;;;;;;27.02;45.71;100191.81;6208694;23;20020;-91
2023/05/31 11:37:32;;;;;;;9.52;2.33;;;;;;;27.38;44.71;100184.31;6209283;23;20020;-92
2023/05/31 11:40:08;;;;;;;4.60;1.38;;;;;;;27.18;43.97;100182.16;6208821;23;20520;-91